createdAt,value
2019-06-20T00:01:28.723Z,87.30
2019-06-20T00:03:56.964Z,88.90
2019-06-20T00:06:25.223Z,89.20
2019-06-20T00:08:53.470Z,88.80
2019-06-20T00:11:21.732Z,88.00
2019-06-20T00:13:49.969Z,88.70
2019-06-20T00:16:18.226Z,89.20
2019-06-20T00:18:46.469Z,89.30
2019-06-20T00:21:14.720Z,88.60
2019-06-20T00:23:42.969Z,89.60
2019-06-20T00:26:11.264Z,88.60
2019-06-20T00:28:39.510Z,88.60
2019-06-20T00:31:07.777Z,88.60
2019-06-20T00:33:36.030Z,89.40
2019-06-20T00:36:04.659Z,89.70
2019-06-20T00:38:32.903Z,89.70
2019-06-20T00:41:01.181Z,87.30
2019-06-20T00:43:29.431Z,88.30
2019-06-20T00:45:57.705Z,87.70
2019-06-20T00:48:25.967Z,87.50
2019-06-20T00:50:54.213Z,87.90
2019-06-20T00:53:22.457Z,87.90
2019-06-20T00:55:50.714Z,88.60
2019-06-20T00:58:18.962Z,88.40
2019-06-20T01:00:47.226Z,87.90
2019-06-20T01:03:15.466Z,86.60
2019-06-20T01:05:43.725Z,86.40
2019-06-20T01:08:11.978Z,86.60
2019-06-20T01:10:40.217Z,84.60
2019-06-20T01:13:08.483Z,85.40
2019-06-20T01:15:36.725Z,85.00
2019-06-20T01:18:04.984Z,85.50
2019-06-20T01:20:33.241Z,85.40
2019-06-20T01:23:01.567Z,85.10
2019-06-20T01:25:39.566Z,85.70
2019-06-20T01:28:07.826Z,87.60
2019-06-20T01:30:36.073Z,86.20
2019-06-20T01:33:05.379Z,86.60
2019-06-20T01:35:33.626Z,89.10
2019-06-20T01:38:02.509Z,88.40
2019-06-20T01:40:30.759Z,87.20
2019-06-20T01:42:59.015Z,86.60
2019-06-20T01:45:27.358Z,86.90
2019-06-20T01:47:55.700Z,86.90
2019-06-20T01:50:23.946Z,86.90
2019-06-20T01:52:52.202Z,87.40
2019-06-20T01:55:20.450Z,87.80
2019-06-20T01:57:48.709Z,88.20
2019-06-20T02:00:52.991Z,87.90
2019-06-20T02:03:21.301Z,88.10
2019-06-20T02:05:49.569Z,88.30
2019-06-20T02:08:17.828Z,88.80
2019-06-20T02:10:46.069Z,90.40
2019-06-20T02:13:14.322Z,91.10
2019-06-20T02:15:42.650Z,90.50
2019-06-20T02:18:10.906Z,89.70
2019-06-20T02:20:44.942Z,89.60
2019-06-20T02:23:13.197Z,89.90
2019-06-20T02:25:41.513Z,90.20
2019-06-20T02:28:09.773Z,90.10
2019-06-20T02:30:38.027Z,91.00
2019-06-20T02:33:06.292Z,91.50
2019-06-20T02:35:34.534Z,93.10
2019-06-20T02:38:02.834Z,92.70
2019-06-20T02:40:31.084Z,92.50
2019-06-20T02:42:59.337Z,93.10
2019-06-20T02:45:27.581Z,92.20
2019-06-20T02:47:55.837Z,91.70
2019-06-20T02:50:24.081Z,92.10
2019-06-20T02:52:52.342Z,92.20
2019-06-20T02:55:20.589Z,92.20
2019-06-20T02:57:48.846Z,91.60
2019-06-20T03:00:38.354Z,91.50
2019-06-20T03:03:06.614Z,92.90
2019-06-20T03:05:34.873Z,93.80
2019-06-20T03:08:03.172Z,93.00
2019-06-20T03:10:31.455Z,93.00
2019-06-20T03:12:59.715Z,93.60
2019-06-20T03:15:27.970Z,93.70
2019-06-20T03:17:56.228Z,94.10
2019-06-20T03:20:24.500Z,94.30
2019-06-20T03:22:52.817Z,94.70
2019-06-20T03:25:21.630Z,94.90
2019-06-20T03:27:49.893Z,94.80
2019-06-20T03:30:18.145Z,95.00
2019-06-20T03:32:46.407Z,94.50
2019-06-20T03:35:14.722Z,93.90
2019-06-20T03:37:42.985Z,93.50
2019-06-20T03:40:11.227Z,93.60
2019-06-20T03:42:39.481Z,93.60
2019-06-20T03:45:07.725Z,93.50
2019-06-20T03:47:35.990Z,93.70
2019-06-20T03:50:06.678Z,93.60
2019-06-20T03:52:34.933Z,94.20
2019-06-20T03:55:03.729Z,94.30
2019-06-20T03:57:31.993Z,94.40
2019-06-20T04:00:00.255Z,94.20
2019-06-20T04:02:28.573Z,94.20
2019-06-20T04:04:56.821Z,93.70
2019-06-20T04:07:25.074Z,94.40
2019-06-20T04:10:10.261Z,93.40
2019-06-20T04:12:38.539Z,90.90
2019-06-20T04:15:18.733Z,91.40
2019-06-20T04:17:36.841Z,91.60
2019-06-20T04:20:08.066Z,90.80
2019-06-20T04:22:36.421Z,90.40
2019-06-20T04:25:05.862Z,90.80
2019-06-20T04:27:34.109Z,90.60
2019-06-20T04:30:02.394Z,91.80
2019-06-20T04:32:30.656Z,89.50
2019-06-20T04:34:59.158Z,89.70
2019-06-20T04:37:27.422Z,89.10
2019-06-20T04:39:55.703Z,89.90
2019-06-20T04:42:23.998Z,88.90
2019-06-20T04:44:53.906Z,88.20
2019-06-20T04:47:22.164Z,89.30
2019-06-20T04:49:50.506Z,89.20
2019-06-20T04:52:18.755Z,88.60
2019-06-20T04:54:47.086Z,86.40
2019-06-20T04:57:15.347Z,84.60
2019-06-20T04:59:43.595Z,84.60
2019-06-20T05:02:14.895Z,83.90
2019-06-20T05:04:41.829Z,82.90
2019-06-20T05:07:16.139Z,82.60
2019-06-20T05:09:44.397Z,81.90
2019-06-20T05:12:12.653Z,79.90
2019-06-20T05:14:40.907Z,81.00
2019-06-20T05:17:09.149Z,80.00
2019-06-20T05:19:37.413Z,80.70
2019-06-20T05:22:05.696Z,80.80
2019-06-20T05:24:33.950Z,81.10
2019-06-20T05:27:02.205Z,81.30
2019-06-20T05:29:30.474Z,81.30
2019-06-20T05:31:58.722Z,82.00
2019-06-20T05:34:26.984Z,82.60
2019-06-20T05:36:55.230Z,83.40
2019-06-20T05:39:23.489Z,82.20
2019-06-20T05:41:51.742Z,82.00
2019-06-20T05:44:20.000Z,80.80
2019-06-20T05:46:48.251Z,79.20
2019-06-20T05:49:16.523Z,76.20
2019-06-20T05:51:44.773Z,73.10
2019-06-20T05:54:13.034Z,72.50
2019-06-20T05:56:41.286Z,72.80
2019-06-20T05:59:09.667Z,73.00
2019-06-20T06:01:38.003Z,74.00
2019-06-20T06:04:06.254Z,72.30
2019-06-20T06:06:34.506Z,69.50
2019-06-20T06:09:02.759Z,67.10
2019-06-20T06:11:31.007Z,64.60
2019-06-20T06:13:59.279Z,64.00
2019-06-20T06:16:28.477Z,63.50
2019-06-20T06:18:57.165Z,65.80
2019-06-20T06:21:25.414Z,67.00
2019-06-20T06:23:53.696Z,67.80
2019-06-20T06:26:22.013Z,66.50
2019-06-20T06:28:50.271Z,57.10
2019-06-20T06:31:18.529Z,46.80
2019-06-20T06:33:46.792Z,38.40
2019-06-20T06:36:15.051Z,34.30
2019-06-20T06:38:43.292Z,36.50
2019-06-20T06:41:11.567Z,38.50
2019-06-20T06:43:42.049Z,40.80
2019-06-20T06:46:09.922Z,43.10
2019-06-20T06:48:38.230Z,39.80
2019-06-20T06:51:06.556Z,34.70
2019-06-20T06:53:34.814Z,33.40
2019-06-20T06:56:03.183Z,33.50
2019-06-20T06:58:31.789Z,33.20
2019-06-20T07:01:00.044Z,31.20
2019-06-20T07:03:28.306Z,27.00
2019-06-20T07:05:56.562Z,27.30
2019-06-20T07:08:24.808Z,29.20
2019-06-20T07:10:53.061Z,32.20
2019-06-20T07:13:21.310Z,34.60
2019-06-20T07:15:49.581Z,37.80
2019-06-20T07:18:17.888Z,42.30
2019-06-20T07:20:46.149Z,46.50
2019-06-20T07:23:14.390Z,49.80
2019-06-20T07:25:42.645Z,51.40
2019-06-20T07:28:10.894Z,53.40
2019-06-20T07:30:39.150Z,54.40
2019-06-20T07:33:07.391Z,55.20
2019-06-20T07:35:35.649Z,49.70
2019-06-20T07:38:03.894Z,43.10
2019-06-20T07:40:32.165Z,34.20
2019-06-20T07:43:00.410Z,27.10
2019-06-20T07:45:28.666Z,23.10
2019-06-20T07:47:56.928Z,25.00
2019-06-20T07:50:25.250Z,24.30
2019-06-20T07:53:01.891Z,22.40
2019-06-20T07:55:23.477Z,21.30
2019-06-20T07:57:51.732Z,23.90
2019-06-20T08:00:20.060Z,25.20
2019-06-20T08:02:48.373Z,26.50
2019-06-20T08:05:16.631Z,24.60
2019-06-20T08:07:44.881Z,22.80
2019-06-20T08:10:14.279Z,20.40
2019-06-20T08:12:42.511Z,20.10
2019-06-20T08:15:15.703Z,19.10
2019-06-20T08:17:41.085Z,19.30
2019-06-20T08:20:10.562Z,18.90
2019-06-20T08:22:38.825Z,20.40
2019-06-20T08:25:07.074Z,22.10
2019-06-20T08:27:50.888Z,22.60
2019-06-20T08:30:27.679Z,25.00
2019-06-20T08:32:57.573Z,26.40
2019-06-20T08:35:27.838Z,28.50
2019-06-20T08:37:57.857Z,28.60
2019-06-20T08:40:26.469Z,29.30
2019-06-20T08:42:55.261Z,26.90
2019-06-20T08:45:26.606Z,27.50
2019-06-20T08:47:56.468Z,25.70
2019-06-20T08:50:24.830Z,25.60
2019-06-20T08:52:53.088Z,26.00
2019-06-20T08:55:21.332Z,26.50
2019-06-20T08:57:49.608Z,26.40
2019-06-20T09:00:18.053Z,27.20
2019-06-20T09:02:46.315Z,27.00
2019-06-20T09:05:14.642Z,28.70
2019-06-20T09:07:42.966Z,29.00
2019-06-20T09:10:11.585Z,28.80
2019-06-20T09:12:39.844Z,29.50
2019-06-20T09:15:08.394Z,29.10
2019-06-20T09:17:36.681Z,28.70
2019-06-20T09:20:10.360Z,32.90
2019-06-20T09:22:38.663Z,32.80
2019-06-20T09:25:07.446Z,32.00
2019-06-20T09:27:36.343Z,31.20
2019-06-20T09:30:09.918Z,28.00
2019-06-20T09:32:38.173Z,26.50
2019-06-20T09:35:07.357Z,26.80
2019-06-20T09:37:35.618Z,27.80
2019-06-20T09:40:05.613Z,28.00
2019-06-20T09:42:36.788Z,27.50
2019-06-20T09:45:06.646Z,29.70
2019-06-20T09:47:34.920Z,26.40
2019-06-20T09:50:05.352Z,29.00
2019-06-20T09:52:33.634Z,28.40
2019-06-20T09:55:01.963Z,28.30
2019-06-20T09:57:30.210Z,25.20
2019-06-20T10:00:07.908Z,23.20
2019-06-20T10:02:28.515Z,25.10
2019-06-20T10:04:56.923Z,23.10
2019-06-20T10:07:25.229Z,23.30
2019-06-20T10:09:54.147Z,25.10
2019-06-20T10:12:22.706Z,24.60
2019-06-20T10:14:51.560Z,25.60
2019-06-20T10:17:20.089Z,26.30
2019-06-20T10:19:48.402Z,23.30
2019-06-20T10:22:16.673Z,24.40
2019-06-20T10:24:46.351Z,21.80
2019-06-20T10:27:14.900Z,20.40
2019-06-20T10:29:44.462Z,20.90
2019-06-20T10:32:13.129Z,21.40
2019-06-20T10:34:41.384Z,19.50
2019-06-20T10:37:09.633Z,21.20
2019-06-20T10:39:37.878Z,21.40
2019-06-20T10:42:06.142Z,20.30
2019-06-20T10:44:34.384Z,19.30
2019-06-20T10:47:02.748Z,21.10
2019-06-20T10:49:31.165Z,22.20
2019-06-20T10:51:59.418Z,21.90
2019-06-20T10:54:27.669Z,23.00
2019-06-20T10:56:55.908Z,21.80
2019-06-20T10:59:24.181Z,24.00
2019-06-20T11:01:52.556Z,19.90
2019-06-20T11:04:20.819Z,21.20
2019-06-20T11:06:49.627Z,22.20
2019-06-20T11:09:17.960Z,21.20
2019-06-20T11:11:49.128Z,22.90
2019-06-20T11:14:17.445Z,23.00
2019-06-20T11:16:47.068Z,21.50
2019-06-20T11:19:15.726Z,22.30
2019-06-20T11:21:43.978Z,22.80
2019-06-20T11:24:12.286Z,24.40
2019-06-20T11:26:41.087Z,21.10
2019-06-20T11:29:09.469Z,23.20
2019-06-20T11:31:41.691Z,22.50
2019-06-20T11:34:07.691Z,22.20
2019-06-20T11:36:37.516Z,24.40
2019-06-20T11:39:06.807Z,24.10
2019-06-20T11:41:36.403Z,24.50
2019-06-20T11:44:05.119Z,24.10
2019-06-20T11:46:35.335Z,23.70
2019-06-20T11:49:03.406Z,22.50
2019-06-20T11:51:31.649Z,22.70
2019-06-20T11:53:59.901Z,22.30
2019-06-20T11:56:28.150Z,20.40
2019-06-20T11:58:56.433Z,20.70
2019-06-20T12:01:32.451Z,21.10
2019-06-20T12:03:54.665Z,23.30
2019-06-20T12:06:22.916Z,20.80
2019-06-20T12:08:51.178Z,20.20
2019-06-20T12:11:19.416Z,22.10
2019-06-20T12:13:48.565Z,23.60
2019-06-20T12:16:16.998Z,22.80
2019-06-20T12:18:45.265Z,21.90
2019-06-20T12:21:13.511Z,20.40
2019-06-20T12:23:42.538Z,21.70
2019-06-20T12:26:11.099Z,23.70
2019-06-20T12:28:40.715Z,23.10
2019-06-20T12:31:18.927Z,23.70
2019-06-20T12:33:39.697Z,23.60
2019-06-20T12:36:09.181Z,24.30
2019-06-20T12:38:38.108Z,22.40
2019-06-20T12:41:07.409Z,24.00
2019-06-20T12:43:35.675Z,23.30
2019-06-20T12:46:05.554Z,23.80
2019-06-20T12:48:33.813Z,21.60
2019-06-20T12:51:02.065Z,21.10
2019-06-20T12:53:30.385Z,22.70
2019-06-20T12:55:58.763Z,19.30
2019-06-20T12:58:27.001Z,17.70
2019-06-20T13:00:55.341Z,19.80
2019-06-20T13:03:23.634Z,19.60
2019-06-20T13:05:51.946Z,23.70
2019-06-20T13:08:20.192Z,21.70
2019-06-20T13:10:48.449Z,21.60
2019-06-20T13:13:16.701Z,23.20
2019-06-20T13:15:44.952Z,20.10
2019-06-20T13:18:13.197Z,20.50
2019-06-20T13:20:42.307Z,20.80
2019-06-20T13:23:10.884Z,19.90
2019-06-20T13:25:39.603Z,19.90
2019-06-20T13:28:09.154Z,20.40
2019-06-20T13:30:38.503Z,20.30
2019-06-20T13:33:07.389Z,20.60
2019-06-20T13:35:35.636Z,20.60
2019-06-20T13:38:03.885Z,21.40
2019-06-20T13:40:32.141Z,21.70
2019-06-20T13:43:00.386Z,22.10
2019-06-20T13:45:28.640Z,21.50
2019-06-20T13:47:56.881Z,22.80
2019-06-20T13:50:25.274Z,24.80
2019-06-20T13:52:53.537Z,28.20
2019-06-20T13:55:21.801Z,30.90
2019-06-20T13:57:50.087Z,32.90
2019-06-20T14:00:20.331Z,35.20
2019-06-20T14:02:49.034Z,35.10
2019-06-20T14:05:18.549Z,35.20
2019-06-20T14:07:50.973Z,33.60
2019-06-20T14:10:17.719Z,33.60
2019-06-20T14:12:46.876Z,31.10
2019-06-20T14:15:15.477Z,31.50
2019-06-20T14:17:44.920Z,31.90
2019-06-20T14:20:13.432Z,30.50
2019-06-20T14:22:42.834Z,29.00
2019-06-20T14:25:11.398Z,28.60
2019-06-20T14:27:39.649Z,31.80
2019-06-20T14:30:08.461Z,31.00
2019-06-20T14:32:36.728Z,33.20
2019-06-20T14:35:05.542Z,32.10
2019-06-20T14:37:33.806Z,32.60
2019-06-20T14:40:02.065Z,33.00
2019-06-20T14:42:30.321Z,31.90
2019-06-20T14:44:58.579Z,32.50
2019-06-20T14:47:26.912Z,33.30
2019-06-20T14:49:55.168Z,35.50
2019-06-20T14:52:23.484Z,34.10
2019-06-20T14:54:51.804Z,35.40
2019-06-20T14:57:20.071Z,36.20
2019-06-20T14:59:48.674Z,36.00
2019-06-20T15:02:18.259Z,38.20
2019-06-20T15:04:47.610Z,37.20
2019-06-20T15:07:16.230Z,37.50
2019-06-20T15:09:45.891Z,37.50
2019-06-20T15:12:14.461Z,37.30
2019-06-20T15:14:42.713Z,37.10
2019-06-20T15:17:11.042Z,37.70
2019-06-20T15:19:39.293Z,37.20
2019-06-20T15:22:07.550Z,36.20
2019-06-20T15:24:35.798Z,32.40
2019-06-20T15:27:04.073Z,32.30
2019-06-20T15:29:32.327Z,35.60
2019-06-20T15:32:00.595Z,33.80
2019-06-20T15:34:28.911Z,32.80
2019-06-20T15:36:57.761Z,31.80
2019-06-20T15:39:26.399Z,31.90
2019-06-20T15:41:55.780Z,32.50
2019-06-20T15:44:24.401Z,33.00
2019-06-20T15:46:52.735Z,35.20
2019-06-20T15:49:20.988Z,36.70
2019-06-20T15:51:49.241Z,36.90
2019-06-20T15:54:17.506Z,37.20
2019-06-20T15:56:45.856Z,38.50
2019-06-20T15:59:14.091Z,40.80
2019-06-20T16:01:42.391Z,42.30
2019-06-20T16:04:10.696Z,45.00
2019-06-20T16:06:38.960Z,49.00
2019-06-20T16:09:09.074Z,48.90
2019-06-20T16:11:37.186Z,49.20
2019-06-20T16:14:05.439Z,54.70
2019-06-20T16:16:33.716Z,57.50
2019-06-20T16:19:01.983Z,61.20
2019-06-20T16:21:30.294Z,63.90
2019-06-20T16:23:58.554Z,68.60
2019-06-20T16:26:26.814Z,67.50
2019-06-20T16:28:55.821Z,65.20
2019-06-20T16:31:27.182Z,64.50
2019-06-20T16:33:54.053Z,66.20
2019-06-20T16:36:22.302Z,67.80
2019-06-20T16:38:50.663Z,68.60
2019-06-20T16:41:19.008Z,70.20
2019-06-20T16:43:47.267Z,73.20
2019-06-20T16:46:15.528Z,73.60
2019-06-20T16:48:43.770Z,74.00
2019-06-20T16:51:12.018Z,74.30
2019-06-20T16:53:40.276Z,74.60
2019-06-20T16:56:08.531Z,75.60
2019-06-20T16:58:36.794Z,78.30
2019-06-20T17:01:05.037Z,78.40
2019-06-20T17:03:41.625Z,75.80
2019-06-20T17:06:03.295Z,72.90
2019-06-20T17:08:31.628Z,71.60
2019-06-20T17:10:59.866Z,67.20
2019-06-20T17:13:28.163Z,63.80
2019-06-20T17:15:56.449Z,67.30
2019-06-20T17:18:24.774Z,68.20
2019-06-20T17:20:53.021Z,68.60
2019-06-20T17:23:21.289Z,70.10
2019-06-20T17:25:49.529Z,69.10
2019-06-20T17:28:17.796Z,66.70
2019-06-20T17:30:46.053Z,65.10
2019-06-20T17:33:14.555Z,65.60
2019-06-20T17:35:42.846Z,65.20
2019-06-20T17:38:11.093Z,68.20
2019-06-20T17:40:39.394Z,66.90
2019-06-20T17:43:07.645Z,67.10
2019-06-20T17:45:35.886Z,66.70
2019-06-20T17:48:04.194Z,67.80
2019-06-20T17:50:32.476Z,67.20
2019-06-20T17:53:00.748Z,71.00
2019-06-20T17:55:29.053Z,72.90
2019-06-20T17:57:57.461Z,69.10
2019-06-20T18:00:26.081Z,68.80
2019-06-20T18:02:54.336Z,71.50
2019-06-20T18:05:22.580Z,68.60
2019-06-20T18:07:50.837Z,70.30
2019-06-20T18:10:19.089Z,70.30
2019-06-20T18:12:47.352Z,71.40
2019-06-20T18:15:17.039Z,73.00
2019-06-20T18:17:45.362Z,72.60
2019-06-20T18:20:13.677Z,72.10
2019-06-20T18:22:41.933Z,72.60
2019-06-20T18:25:10.261Z,73.20
2019-06-20T18:27:38.501Z,72.60
2019-06-20T18:30:10.665Z,72.60
2019-06-20T18:32:38.915Z,71.70
2019-06-20T18:35:07.744Z,70.70
2019-06-20T18:37:37.630Z,73.70
2019-06-20T18:40:07.613Z,72.80
2019-06-20T18:42:35.866Z,73.10
2019-06-20T18:45:06.172Z,73.20
2019-06-20T18:47:34.490Z,73.20
2019-06-20T18:50:02.752Z,74.10
2019-06-20T18:52:31.154Z,75.30
2019-06-20T18:54:59.413Z,77.60
2019-06-20T18:57:27.654Z,76.30
2019-06-20T18:59:58.917Z,80.80
2019-06-20T19:02:27.165Z,79.70
2019-06-20T19:04:55.424Z,78.80
2019-06-20T19:07:23.665Z,75.90
2019-06-20T19:09:51.913Z,75.70
2019-06-20T19:12:20.171Z,77.80
2019-06-20T19:14:48.434Z,78.60
2019-06-20T19:17:16.736Z,80.50
2019-06-20T19:19:45.012Z,78.00
2019-06-20T19:22:13.257Z,76.30
2019-06-20T19:24:41.510Z,75.00
2019-06-20T19:27:09.836Z,76.80
2019-06-20T19:29:40.958Z,77.90
2019-06-20T19:32:09.207Z,78.50
2019-06-20T19:34:37.466Z,79.60
2019-06-20T19:37:05.776Z,81.40
2019-06-20T19:39:34.131Z,83.10
2019-06-20T19:42:02.446Z,84.20
2019-06-20T19:44:32.333Z,84.20
2019-06-20T19:47:00.582Z,84.70
2019-06-20T19:49:28.906Z,85.20
2019-06-20T19:51:57.156Z,85.30
2019-06-20T19:54:25.481Z,86.60
2019-06-20T19:56:53.754Z,87.40
2019-06-20T19:59:22.138Z,87.80
2019-06-20T20:01:50.560Z,89.00
2019-06-20T20:04:18.861Z,89.60
2019-06-20T20:06:47.106Z,90.40
2019-06-20T20:09:15.537Z,91.30
2019-06-20T20:11:43.796Z,92.00
2019-06-20T20:14:12.043Z,92.60
2019-06-20T20:16:40.329Z,93.20
2019-06-20T20:19:08.654Z,93.90
2019-06-20T20:21:36.898Z,93.50
2019-06-20T20:24:05.145Z,93.70
2019-06-20T20:26:33.401Z,93.60
2019-06-20T20:29:01.686Z,93.40
2019-06-20T20:31:29.999Z,93.30
2019-06-20T20:33:58.454Z,92.80
2019-06-20T20:36:27.055Z,93.50
2019-06-20T20:38:55.302Z,92.50
2019-06-20T20:41:23.563Z,91.50
2019-06-20T20:43:51.810Z,91.40
2019-06-20T20:46:20.064Z,92.30
2019-06-20T20:48:48.310Z,91.80
2019-06-20T20:51:16.565Z,91.70
2019-06-20T20:53:44.805Z,91.60
2019-06-20T20:56:13.074Z,92.00
2019-06-20T20:58:41.317Z,92.10
2019-06-20T21:01:15.590Z,92.60
2019-06-20T21:03:43.850Z,92.40
2019-06-20T21:06:12.105Z,92.10
2019-06-20T21:08:40.341Z,91.90
2019-06-20T21:11:08.602Z,90.70
2019-06-20T21:13:36.925Z,91.00
2019-06-20T21:16:05.187Z,91.80
2019-06-20T21:18:33.432Z,92.10
2019-06-20T21:21:01.706Z,91.50
2019-06-20T21:23:29.953Z,91.40
2019-06-20T21:25:58.223Z,91.10
2019-06-20T21:28:26.468Z,91.30
2019-06-20T21:30:54.726Z,91.70
2019-06-20T21:33:22.973Z,88.50
2019-06-20T21:36:07.001Z,87.50
2019-06-20T21:38:21.197Z,88.10
2019-06-20T21:40:49.467Z,89.10
2019-06-20T21:43:17.733Z,90.00
2019-06-20T21:45:46.056Z,89.40
2019-06-20T21:48:14.321Z,90.70
2019-06-20T21:50:42.590Z,91.00
2019-06-20T21:53:10.842Z,90.90
2019-06-20T21:55:39.098Z,90.50
2019-06-20T21:58:07.354Z,91.10
2019-06-20T22:00:46.527Z,90.40
2019-06-20T22:03:14.777Z,90.10
2019-06-20T22:05:43.033Z,88.70
2019-06-20T22:08:11.291Z,88.50
2019-06-20T22:10:39.627Z,89.60
2019-06-20T22:13:07.954Z,89.70
2019-06-20T22:15:36.382Z,90.00
2019-06-20T22:18:04.705Z,90.50
2019-06-20T22:20:32.963Z,91.00
2019-06-20T22:23:01.208Z,91.50
2019-06-20T22:25:29.464Z,91.50
2019-06-20T22:27:57.725Z,91.80
2019-06-20T22:30:41.416Z,92.70
2019-06-20T22:33:09.738Z,92.50
2019-06-20T22:35:37.986Z,92.20
2019-06-20T22:38:06.246Z,92.20
2019-06-20T22:40:34.498Z,92.40
2019-06-20T22:43:02.755Z,92.60
2019-06-20T22:45:31.010Z,92.40
2019-06-20T22:47:59.274Z,92.60
2019-06-20T22:50:27.515Z,93.20
2019-06-20T22:52:55.769Z,94.30
2019-06-20T22:55:24.012Z,93.70
2019-06-20T22:57:52.281Z,92.90
2019-06-20T23:00:20.542Z,92.70
2019-06-20T23:02:48.792Z,92.70
2019-06-20T23:05:17.041Z,93.20
2019-06-20T23:07:45.304Z,93.20
2019-06-20T23:10:13.930Z,93.90
2019-06-20T23:12:42.204Z,93.70
2019-06-20T23:15:10.534Z,93.70
2019-06-20T23:17:38.786Z,94.40
2019-06-20T23:20:08.833Z,94.60
2019-06-20T23:22:37.104Z,95.00
2019-06-20T23:25:07.311Z,95.00
2019-06-20T23:27:35.572Z,95.10
2019-06-20T23:30:08.221Z,94.40
2019-06-20T23:32:36.478Z,94.90
2019-06-20T23:35:07.021Z,94.80
2019-06-20T23:37:35.280Z,94.70
2019-06-20T23:40:06.529Z,93.60
2019-06-20T23:42:34.789Z,93.30
2019-06-20T23:45:04.677Z,93.60
2019-06-20T23:47:32.942Z,92.70
2019-06-20T23:50:01.193Z,93.40
2019-06-20T23:52:46.086Z,93.80
2019-06-20T23:55:13.650Z,93.50
2019-06-20T23:57:41.906Z,93.80
